Time;durP1;ratioP1;P1;durP2;ratioP2;P2;SDS_P1;SDS_P2;PMS_P1;PMS_P2;Temp;Humidity;BMP_temperature;BMP_pressure;BME280_temperature;BME280_humidity;BME280_pressure;Samples;Min_cycle;Max_cycle;Signal;HPM_P1;HPM_P2
2021/10/24 00:02:13;;;;;;;0.70;0.60;;;5.80;99.90;;;;;;4988088;28;20647;-69
2021/10/24 00:04:39;;;;;;;1.10;0.70;;;5.80;99.90;;;;;;4991334;28;20416;-69
2021/10/24 00:07:04;;;;;;;0.80;0.70;;;5.80;99.90;;;;;;4991976;28;20674;-69
2021/10/24 00:09:30;;;;;;;0.70;0.50;;;5.80;99.90;;;;;;4981502;28;20223;-69
2021/10/24 00:11:55;;;;;;;0.80;0.67;;;5.80;99.90;;;;;;4982004;28;20202;-68
2021/10/24 00:14:21;;;;;;;0.70;0.50;;;5.80;99.90;;;;;;4973550;28;20165;-67
2021/10/24 00:16:47;;;;;;;0.80;0.70;;;5.80;99.90;;;;;;4991875;28;20200;-67
2021/10/24 00:19:12;;;;;;;0.80;0.63;;;5.70;99.90;;;;;;4991881;28;20177;-68
2021/10/24 00:21:38;;;;;;;0.70;0.50;;;5.80;99.90;;;;;;4989082;28;20177;-67
2021/10/24 00:24:04;;;;;;;0.70;0.50;;;5.80;99.90;;;;;;4988267;28;20181;-69
2021/10/24 00:26:29;;;;;;;0.70;0.50;;;5.80;99.90;;;;;;4987900;28;20805;-68
2021/10/24 00:28:55;;;;;;;1.30;0.80;;;5.70;99.90;;;;;;4992095;28;20177;-68
2021/10/24 00:31:21;;;;;;;0.70;0.50;;;5.70;99.90;;;;;;4986898;28;20173;-68
2021/10/24 00:33:46;;;;;;;0.80;0.70;;;5.70;99.90;;;;;;4991737;28;20420;-68
2021/10/24 00:36:12;;;;;;;0.70;0.50;;;5.70;99.90;;;;;;4976301;28;20228;-68
2021/10/24 00:38:37;;;;;;;0.70;0.60;;;5.70;99.90;;;;;;4973970;28;20661;-68
2021/10/24 00:41:03;;;;;;;1.17;1.07;;;5.70;99.90;;;;;;4972766;28;20178;-68
2021/10/24 00:43:29;;;;;;;0.70;0.50;;;5.60;99.90;;;;;;4972695;28;20173;-68
2021/10/24 00:45:54;;;;;;;1.43;1.33;;;5.60;99.90;;;;;;4995152;28;20189;-67
2021/10/24 00:48:20;;;;;;;0.80;0.80;;;5.50;99.90;;;;;;4975779;28;20181;-67
2021/10/24 00:50:45;;;;;;;0.70;0.50;;;5.50;99.90;;;;;;4975327;28;20226;-68
2021/10/24 00:53:14;;;;;;;0.70;0.53;;;5.50;99.90;;;;;;4990310;28;20220;-68
2021/10/24 00:55:40;;;;;;;0.73;0.67;;;5.50;99.90;;;;;;4989611;28;20197;-67
2021/10/24 00:58:07;;;;;;;0.70;0.50;;;5.50;99.90;;;;;;4991704;28;20426;-67
2021/10/24 01:00:33;;;;;;;0.70;0.50;;;5.50;99.90;;;;;;5003096;28;20437;-67
2021/10/24 01:03:01;;;;;;;0.70;0.60;;;5.50;99.90;;;;;;4990318;28;20443;-67
2021/10/24 01:05:27;;;;;;;4.20;2.30;;;5.40;99.90;;;;;;4975993;28;20194;-67
2021/10/24 01:07:52;;;;;;;0.90;0.70;;;5.40;99.90;;;;;;4976042;28;20421;-69
2021/10/24 01:10:18;;;;;;;0.77;0.67;;;5.40;99.90;;;;;;4976220;28;20928;-69
2021/10/24 01:12:46;;;;;;;0.70;0.50;;;5.40;99.90;;;;;;4975987;28;20193;-69
2021/10/24 01:15:12;;;;;;;0.70;0.50;;;5.40;99.90;;;;;;4982937;28;20917;-69
2021/10/24 01:17:38;;;;;;;0.70;0.70;;;5.40;99.90;;;;;;4995010;28;20506;-69
2021/10/24 01:20:05;;;;;;;0.87;0.83;;;5.40;99.90;;;;;;4988376;28;20472;-69
2021/10/24 01:22:33;;;;;;;0.97;0.80;;;5.30;99.90;;;;;;4990825;28;20613;-69
2021/10/24 01:24:59;;;;;;;0.70;0.40;;;5.30;99.90;;;;;;4975982;28;20433;-69
2021/10/24 01:27:24;;;;;;;0.70;0.50;;;5.30;99.90;;;;;;4974881;28;20951;-69
2021/10/24 01:29:50;;;;;;;0.70;0.47;;;5.30;99.90;;;;;;4990547;28;20264;-68
2021/10/24 01:32:15;;;;;;;0.70;0.50;;;5.40;99.90;;;;;;4987315;28;20331;-69
2021/10/24 01:34:46;;;;;;;0.70;0.50;;;5.30;99.90;;;;;;4990166;28;20204;-67
2021/10/24 01:37:12;;;;;;;0.70;0.50;;;5.30;99.90;;;;;;4974096;28;20256;-68
2021/10/24 01:39:38;;;;;;;2.73;2.57;;;5.30;99.90;;;;;;4979459;28;20788;-69
2021/10/24 01:42:04;;;;;;;0.70;0.50;;;5.30;99.90;;;;;;4990473;28;20433;-68
2021/10/24 01:44:29;;;;;;;0.70;0.70;;;5.20;99.90;;;;;;4990322;28;20228;-68
2021/10/24 01:46:55;;;;;;;1.37;1.27;;;5.20;99.90;;;;;;4974955;28;20201;-69
2021/10/24 01:49:20;;;;;;;6.47;0.87;;;5.20;99.90;;;;;;4990123;28;20188;-69
2021/10/24 01:51:46;;;;;;;0.70;0.60;;;5.30;99.90;;;;;;4991583;28;20208;-69
2021/10/24 01:54:11;;;;;;;0.70;0.40;;;5.20;99.90;;;;;;4993338;28;20169;-69
2021/10/24 01:56:37;;;;;;;0.90;0.60;;;5.10;99.90;;;;;;4982534;28;20241;-69
2021/10/24 01:59:02;;;;;;;0.70;0.50;;;5.00;99.90;;;;;;4989373;28;20192;-69
2021/10/24 02:01:28;;;;;;;0.70;0.50;;;5.00;99.90;;;;;;4992604;28;20191;-69
2021/10/24 02:03:54;;;;;;;0.70;0.50;;;4.90;99.90;;;;;;4994234;28;20187;-68
2021/10/24 02:06:19;;;;;;;0.70;0.60;;;4.80;99.90;;;;;;4992146;28;20800;-68
2021/10/24 02:08:45;;;;;;;1.10;0.80;;;4.80;99.90;;;;;;4994186;28;20196;-69
2021/10/24 02:11:10;;;;;;;0.70;0.50;;;4.80;99.90;;;;;;4992109;28;20196;-69
2021/10/24 02:13:36;;;;;;;0.70;0.50;;;4.80;99.90;;;;;;4992802;28;20197;-69
2021/10/24 02:16:02;;;;;;;0.70;0.50;;;4.80;99.90;;;;;;4992543;28;20228;-69
2021/10/24 02:18:27;;;;;;;0.70;0.60;;;4.80;99.90;;;;;;4991897;28;20176;-69
2021/10/24 02:20:53;;;;;;;0.70;0.50;;;4.80;99.90;;;;;;4979765;28;20545;-69
2021/10/24 02:23:19;;;;;;;1.47;1.00;;;4.80;99.90;;;;;;4992518;28;20177;-69
2021/10/24 02:25:44;;;;;;;1.53;1.27;;;4.80;99.90;;;;;;4980377;28;20245;-69
2021/10/24 02:28:10;;;;;;;0.70;0.70;;;4.80;99.90;;;;;;4983232;28;20177;-69
2021/10/24 02:30:36;;;;;;;0.70;0.50;;;4.80;99.90;;;;;;4992176;28;20424;-69
2021/10/24 02:33:02;;;;;;;0.80;0.80;;;4.90;99.90;;;;;;4989514;28;20205;-69
2021/10/24 02:35:27;;;;;;;0.80;0.70;;;4.80;99.90;;;;;;4990142;28;20196;-69
2021/10/24 02:37:54;;;;;;;0.70;0.60;;;4.80;99.90;;;;;;4989493;28;21086;-68
2021/10/24 02:40:20;;;;;;;1.20;0.73;;;4.90;99.90;;;;;;4985289;28;20226;-69
2021/10/24 02:42:48;;;;;;;0.70;0.60;;;4.90;99.90;;;;;;4973182;28;20997;-69
2021/10/24 02:45:14;;;;;;;0.80;0.70;;;4.80;99.90;;;;;;4989712;28;20451;-68
2021/10/24 02:47:40;;;;;;;0.70;0.50;;;4.80;99.90;;;;;;4992984;28;20432;-68
2021/10/24 02:50:06;;;;;;;0.70;0.63;;;4.90;99.90;;;;;;4978591;28;20503;-68
2021/10/24 02:52:32;;;;;;;0.70;0.53;;;4.80;99.90;;;;;;4974398;28;20210;-68
2021/10/24 02:54:58;;;;;;;0.70;0.50;;;4.70;99.90;;;;;;4975801;28;20420;-69
2021/10/24 02:57:23;;;;;;;1.10;1.00;;;4.60;99.90;;;;;;4991359;28;20570;-69
2021/10/24 02:59:49;;;;;;;1.50;0.87;;;4.60;99.90;;;;;;4992057;28;20416;-69
2021/10/24 03:02:15;;;;;;;0.70;0.40;;;4.60;99.90;;;;;;4992157;28;20511;-68
2021/10/24 03:04:40;;;;;;;1.67;1.57;;;4.70;99.90;;;;;;4992734;28;20432;-68
2021/10/24 03:07:06;;;;;;;0.70;0.50;;;4.70;99.90;;;;;;4974522;28;20734;-69
2021/10/24 03:09:31;;;;;;;0.70;0.60;;;4.60;99.90;;;;;;4991479;28;20184;-68
2021/10/24 03:11:57;;;;;;;0.70;0.50;;;4.60;99.90;;;;;;4992838;28;20231;-68
2021/10/24 03:14:23;;;;;;;0.90;0.90;;;4.60;99.90;;;;;;4982910;28;20180;-68
2021/10/24 03:16:48;;;;;;;0.70;0.43;;;4.60;99.90;;;;;;4973349;28;20203;-68
2021/10/24 03:19:14;;;;;;;0.70;0.60;;;4.60;99.90;;;;;;4987199;28;20181;-68
2021/10/24 03:21:40;;;;;;;0.70;0.50;;;4.50;99.90;;;;;;5006581;28;20209;-69
2021/10/24 03:24:06;;;;;;;0.70;0.50;;;4.50;99.90;;;;;;4992953;28;20462;-69
2021/10/24 03:26:33;;;;;;;0.70;0.50;;;4.40;99.90;;;;;;4988826;28;20197;-68
2021/10/24 03:28:59;;;;;;;0.70;0.50;;;4.40;99.90;;;;;;4978865;28;20427;-68
2021/10/24 03:31:25;;;;;;;0.70;0.67;;;4.50;99.90;;;;;;4984902;28;20803;-68
2021/10/24 03:33:50;;;;;;;0.70;0.63;;;4.40;99.90;;;;;;4978006;28;20173;-68
2021/10/24 03:36:16;;;;;;;2.93;1.43;;;4.40;99.90;;;;;;4990348;28;20283;-68
2021/10/24 03:38:42;;;;;;;0.70;0.63;;;4.30;99.90;;;;;;4992680;28;20185;-69
2021/10/24 03:41:08;;;;;;;1.20;1.10;;;4.30;99.90;;;;;;4985619;28;20605;-69
2021/10/24 03:43:34;;;;;;;0.70;0.60;;;4.30;99.90;;;;;;4974357;28;20428;-68
2021/10/24 03:45:59;;;;;;;0.70;0.50;;;4.30;99.90;;;;;;4977570;28;20538;-69
2021/10/24 03:48:25;;;;;;;0.70;0.50;;;4.30;99.90;;;;;;4991186;28;20188;-69
2021/10/24 03:50:51;;;;;;;0.70;0.60;;;4.30;99.90;;;;;;4992171;28;20518;-69
2021/10/24 03:53:17;;;;;;;0.70;0.50;;;4.20;99.90;;;;;;4991240;28;20463;-69
2021/10/24 03:55:45;;;;;;;2.70;2.20;;;4.20;99.90;;;;;;4991671;28;20458;-69
2021/10/24 03:58:11;;;;;;;0.70;0.50;;;4.20;99.90;;;;;;4985300;28;20930;-69
2021/10/24 04:00:36;;;;;;;1.03;0.83;;;4.20;99.90;;;;;;4973454;28;20476;-69
2021/10/24 04:03:05;;;;;;;0.93;0.83;;;4.10;99.90;;;;;;4985801;28;20268;-68
2021/10/24 04:05:31;;;;;;;0.70;0.60;;;4.10;99.90;;;;;;4991629;28;20201;-68
2021/10/24 04:07:57;;;;;;;0.70;0.60;;;4.00;99.90;;;;;;4992277;28;20515;-68
2021/10/24 04:10:24;;;;;;;0.90;0.90;;;4.00;99.90;;;;;;5007357;28;20439;-68
2021/10/24 04:12:50;;;;;;;0.80;0.60;;;4.00;99.90;;;;;;4991503;28;20460;-68
2021/10/24 04:15:18;;;;;;;0.93;0.63;;;3.90;99.90;;;;;;4984611;28;20534;-69
2021/10/24 04:17:44;;;;;;;0.70;0.60;;;4.00;99.90;;;;;;4978297;28;20431;-69
2021/10/24 04:20:13;;;;;;;0.70;0.60;;;3.90;99.90;;;;;;4994985;28;20423;-68
2021/10/24 04:22:40;;;;;;;0.70;0.50;;;3.90;99.90;;;;;;4973285;28;20429;-68
2021/10/24 04:25:08;;;;;;;0.90;0.60;;;3.90;99.90;;;;;;4973708;28;20508;-69
2021/10/24 04:27:35;;;;;;;0.90;0.73;;;3.90;99.90;;;;;;4972954;28;20420;-69
2021/10/24 04:30:02;;;;;;;0.70;0.50;;;4.00;99.90;;;;;;4986857;28;20432;-69
2021/10/24 04:32:28;;;;;;;0.70;0.50;;;4.00;99.90;;;;;;4991824;28;20463;-69
2021/10/24 04:34:53;;;;;;;0.70;0.50;;;3.90;99.90;;;;;;4978863;28;20440;-69
2021/10/24 04:37:19;;;;;;;0.70;0.50;;;3.90;99.90;;;;;;4989304;28;20203;-69
2021/10/24 04:39:45;;;;;;;0.70;0.50;;;3.80;99.90;;;;;;4993472;28;20199;-69
2021/10/24 04:42:11;;;;;;;1.30;0.83;;;3.70;99.90;;;;;;4995404;28;20673;-69
2021/10/24 04:44:36;;;;;;;1.23;1.13;;;3.70;99.90;;;;;;4985006;28;20444;-68
2021/10/24 04:47:03;;;;;;;3.33;3.13;;;3.70;99.90;;;;;;4976211;28;20201;-68
2021/10/24 04:49:28;;;;;;;1.47;0.83;;;3.70;99.90;;;;;;4976758;28;20205;-68
2021/10/24 04:51:54;;;;;;;4.50;1.00;;;3.70;99.90;;;;;;5003917;28;20520;-68
2021/10/24 04:54:21;;;;;;;0.70;0.50;;;3.70;99.90;;;;;;4995279;28;20181;-68
2021/10/24 04:56:47;;;;;;;2.40;1.47;;;3.70;99.90;;;;;;4995265;28;20232;-68
2021/10/24 04:59:12;;;;;;;1.00;1.00;;;3.60;99.90;;;;;;4995420;28;20439;-68
2021/10/24 05:01:38;;;;;;;0.70;0.50;;;3.60;99.90;;;;;;4983726;28;20659;-68
2021/10/24 05:04:04;;;;;;;0.70;0.50;;;3.60;99.90;;;;;;5010383;28;20538;-69
2021/10/24 05:06:29;;;;;;;2.03;1.13;;;3.50;99.90;;;;;;4988247;28;20208;-69
2021/10/24 05:08:55;;;;;;;0.87;0.83;;;3.50;99.90;;;;;;4988783;28;20181;-68
2021/10/24 05:11:20;;;;;;;0.70;0.63;;;3.50;99.90;;;;;;4986473;28;20182;-68
2021/10/24 05:13:46;;;;;;;0.70;0.53;;;3.40;99.90;;;;;;4979961;28;20258;-68
2021/10/24 05:16:11;;;;;;;0.70;0.50;;;3.40;99.90;;;;;;4996505;28;20190;-69
2021/10/24 05:18:37;;;;;;;1.47;0.70;;;3.50;99.90;;;;;;4976308;28;20257;-68
2021/10/24 05:21:02;;;;;;;0.70;0.50;;;3.50;99.90;;;;;;4975768;28;20256;-68
2021/10/24 05:23:28;;;;;;;0.70;0.50;;;3.60;99.90;;;;;;4985121;28;20184;-68
2021/10/24 05:25:54;;;;;;;0.70;0.50;;;3.60;99.90;;;;;;4981710;28;20574;-68
2021/10/24 05:28:20;;;;;;;0.70;0.60;;;3.70;99.90;;;;;;4975902;28;20676;-68
2021/10/24 05:30:45;;;;;;;0.80;0.70;;;3.70;99.90;;;;;;4987308;28;20464;-69
2021/10/24 05:33:11;;;;;;;0.70;0.50;;;3.70;99.90;;;;;;4993290;28;20290;-68
2021/10/24 05:35:36;;;;;;;0.70;0.50;;;3.60;99.90;;;;;;4993167;28;20286;-68
2021/10/24 05:38:02;;;;;;;0.70;0.60;;;3.40;99.90;;;;;;4994847;28;20647;-68
2021/10/24 05:40:27;;;;;;;1.00;0.90;;;3.50;99.90;;;;;;4993446;28;20827;-68
2021/10/24 05:42:53;;;;;;;2.00;1.13;;;3.50;99.90;;;;;;4994471;28;20583;-69
2021/10/24 05:45:19;;;;;;;0.70;0.60;;;3.60;99.90;;;;;;4993931;28;20211;-68
2021/10/24 05:47:44;;;;;;;1.27;1.17;;;3.60;99.90;;;;;;4993301;28;20700;-68
2021/10/24 05:50:10;;;;;;;0.70;0.50;;;3.60;99.90;;;;;;4994225;28;20199;-68
2021/10/24 05:52:36;;;;;;;0.70;0.50;;;3.60;99.90;;;;;;4974396;28;20292;-68
2021/10/24 05:55:02;;;;;;;0.70;0.70;;;3.50;99.90;;;;;;4975068;28;20177;-68
2021/10/24 05:57:28;;;;;;;0.70;0.50;;;3.60;99.90;;;;;;4983312;28;20795;-68
2021/10/24 05:59:53;;;;;;;1.30;1.20;;;3.50;99.90;;;;;;4974059;28;20413;-69
2021/10/24 06:02:19;;;;;;;0.70;0.50;;;3.60;99.90;;;;;;4982897;28;20372;-68
2021/10/24 06:04:44;;;;;;;0.70;0.50;;;3.60;99.90;;;;;;4975043;28;20279;-68
2021/10/24 06:07:10;;;;;;;0.80;0.70;;;3.60;99.90;;;;;;4974906;28;20208;-68
2021/10/24 06:12:16;;;;;;;0.70;0.50;;;3.20;99.90;;;;;;4975096;28;20663;-68
2021/10/24 06:14:42;;;;;;;0.70;0.43;;;3.20;99.90;;;;;;4975064;28;20421;-68
2021/10/24 06:17:08;;;;;;;1.43;1.33;;;3.00;99.90;;;;;;4980704;28;20436;-68
2021/10/24 06:19:35;;;;;;;0.70;0.70;;;3.00;99.90;;;;;;4973817;28;20440;-68
2021/10/24 06:22:01;;;;;;;0.70;0.57;;;3.00;99.90;;;;;;4973478;28;20429;-68
2021/10/24 06:24:26;;;;;;;0.70;0.50;;;3.00;99.90;;;;;;4989852;28;20425;-68
2021/10/24 06:26:52;;;;;;;0.70;0.50;;;3.00;99.90;;;;;;4973670;28;20208;-68
2021/10/24 06:29:17;;;;;;;0.70;0.50;;;3.10;99.90;;;;;;4975080;28;20682;-68
2021/10/24 06:31:43;;;;;;;0.70;0.50;;;3.20;99.90;;;;;;4974587;28;20709;-68
2021/10/24 06:34:08;;;;;;;1.50;1.40;;;3.20;99.90;;;;;;4982081;28;20174;-68
2021/10/24 06:36:34;;;;;;;0.70;0.50;;;3.30;99.90;;;;;;4983802;28;20272;-68
2021/10/24 06:39:00;;;;;;;0.70;0.50;;;3.30;99.90;;;;;;4974432;28;20592;-68
2021/10/24 06:41:26;;;;;;;1.27;1.17;;;3.40;99.90;;;;;;4991175;28;20854;-68
2021/10/24 06:43:51;;;;;;;3.10;1.00;;;3.50;99.90;;;;;;4981025;28;20767;-68
2021/10/24 06:46:17;;;;;;;0.70;0.40;;;3.50;99.90;;;;;;4974180;28;20284;-68
2021/10/24 06:48:42;;;;;;;1.17;1.03;;;3.50;99.90;;;;;;4993325;28;20173;-68
2021/10/24 06:51:08;;;;;;;0.70;0.50;;;3.50;99.90;;;;;;4985946;28;20216;-68
2021/10/24 06:53:33;;;;;;;1.30;0.80;;;3.40;99.90;;;;;;4973898;28;20205;-68
2021/10/24 06:55:59;;;;;;;2.20;2.10;;;3.40;99.90;;;;;;4973729;28;20205;-68
2021/10/24 06:58:24;;;;;;;0.70;0.50;;;3.50;99.90;;;;;;4992937;28;20177;-68
2021/10/24 07:00:50;;;;;;;0.70;0.40;;;3.60;99.90;;;;;;4988937;28;20185;-68
2021/10/24 07:03:15;;;;;;;0.90;0.60;;;3.50;99.90;;;;;;4973511;28;20177;-68
2021/10/24 07:05:42;;;;;;;0.70;0.50;;;3.60;99.90;;;;;;4977291;28;20540;-68
2021/10/24 07:08:07;;;;;;;0.70;0.50;;;3.60;99.90;;;;;;4992997;28;20318;-68
2021/10/24 07:10:33;;;;;;;0.70;0.50;;;3.60;99.90;;;;;;4993224;28;20985;-68
2021/10/24 07:12:59;;;;;;;0.70;0.40;;;3.60;99.90;;;;;;4992911;28;20208;-68
2021/10/24 07:15:24;;;;;;;0.70;0.47;;;3.60;99.90;;;;;;4992319;28;20228;-68
2021/10/24 07:17:51;;;;;;;0.80;0.80;;;3.70;99.90;;;;;;4992996;28;20192;-68
2021/10/24 07:20:17;;;;;;;0.80;0.73;;;3.60;99.90;;;;;;4985056;28;20177;-68
2021/10/24 07:22:43;;;;;;;1.50;1.07;;;3.80;99.90;;;;;;4976134;28;20431;-68
2021/10/24 07:25:09;;;;;;;0.80;0.60;;;3.80;99.90;;;;;;4978159;28;20962;-68
2021/10/24 07:27:35;;;;;;;0.70;0.50;;;4.00;99.90;;;;;;4992794;28;20945;-68
2021/10/24 07:30:01;;;;;;;0.90;0.90;;;4.20;99.90;;;;;;4979981;28;20428;-68
2021/10/24 07:32:27;;;;;;;0.70;0.50;;;4.40;99.90;;;;;;4974589;28;20456;-68
2021/10/24 07:34:53;;;;;;;1.10;0.83;;;4.50;99.90;;;;;;4976962;28;20424;-68
2021/10/24 07:37:18;;;;;;;0.70;0.60;;;4.60;99.90;;;;;;4984102;28;20224;-68
2021/10/24 07:39:45;;;;;;;0.80;0.73;;;4.50;99.90;;;;;;4992640;28;20176;-68
2021/10/24 07:42:10;;;;;;;0.70;0.50;;;4.60;99.90;;;;;;4991162;28;20187;-68
2021/10/24 07:44:37;;;;;;;0.80;0.80;;;4.80;99.90;;;;;;4992232;28;20907;-68
2021/10/24 07:47:03;;;;;;;0.90;0.70;;;4.80;99.90;;;;;;4989576;28;20203;-68
2021/10/24 07:49:29;;;;;;;18.33;3.03;;;5.00;99.90;;;;;;4991755;28;20420;-68
2021/10/24 07:51:56;;;;;;;0.70;0.70;;;5.20;99.90;;;;;;4991505;28;20447;-68
2021/10/24 07:54:22;;;;;;;0.80;0.80;;;5.60;99.90;;;;;;4991626;28;20195;-67
2021/10/24 07:56:47;;;;;;;0.80;0.73;;;5.80;99.90;;;;;;4990889;28;20988;-66
2021/10/24 07:59:13;;;;;;;3.33;1.10;;;6.00;99.90;;;;;;4988583;28;20184;-67
2021/10/24 08:01:39;;;;;;;2.30;1.00;;;6.30;99.90;;;;;;4973093;28;20169;-67
2021/10/24 08:04:08;;;;;;;1.00;0.90;;;6.60;99.90;;;;;;4987535;28;20213;-66
2021/10/24 08:06:34;;;;;;;0.80;0.67;;;6.90;99.90;;;;;;4974678;28;20467;-66
2021/10/24 08:09:06;;;;;;;0.70;0.50;;;7.80;99.90;;;;;;4991768;28;20444;-69
2021/10/24 08:11:33;;;;;;;8.10;1.73;;;8.20;99.90;;;;;;4991754;28;20455;-68
2021/10/24 08:13:59;;;;;;;0.73;0.60;;;8.10;99.90;;;;;;4992537;28;20951;-68
2021/10/24 08:16:25;;;;;;;1.03;0.90;;;8.10;99.90;;;;;;5010043;28;20444;-68
2021/10/24 08:18:51;;;;;;;0.70;0.50;;;7.80;99.90;;;;;;4994570;28;20415;-68
2021/10/24 08:21:17;;;;;;;2.23;2.10;;;8.80;99.90;;;;;;4977381;28;20546;-68
2021/10/24 08:23:43;;;;;;;0.70;0.60;;;9.20;99.90;;;;;;4981990;28;20416;-68
2021/10/24 08:26:10;;;;;;;3.33;0.87;;;10.00;99.90;;;;;;4993355;28;20300;-68
2021/10/24 08:28:37;;;;;;;1.50;1.23;;;10.40;99.90;;;;;;4977971;28;20433;-68
2021/10/24 08:31:03;;;;;;;1.53;1.17;;;10.30;99.90;;;;;;4976765;28;20459;-68
2021/10/24 08:33:30;;;;;;;0.70;0.60;;;10.00;99.90;;;;;;4977719;28;20457;-68
2021/10/24 08:35:58;;;;;;;1.43;1.33;;;10.80;99.90;;;;;;4976216;28;20490;-68
2021/10/24 08:38:24;;;;;;;1.50;0.90;;;11.20;99.90;;;;;;4991824;28;20429;-68
2021/10/24 08:40:49;;;;;;;1.27;0.87;;;10.90;99.90;;;;;;4995419;28;20763;-68
2021/10/24 08:43:20;;;;;;;0.97;0.87;;;11.80;99.90;;;;;;4995623;28;20187;-68
2021/10/24 08:45:46;;;;;;;3.23;2.43;;;13.20;99.90;;;;;;4988471;28;20678;-68
2021/10/24 08:48:13;;;;;;;2.30;1.90;;;13.40;99.90;;;;;;4976398;28;20511;-68
2021/10/24 08:50:39;;;;;;;1.10;1.03;;;12.80;99.90;;;;;;4977577;28;20533;-68
2021/10/24 08:53:12;;;;;;;1.10;1.00;;;13.10;99.90;;;;;;4997867;28;20937;-69
2021/10/24 08:55:39;;;;;;;1.50;1.40;;;13.60;99.90;;;;;;4994631;28;20452;-68
2021/10/24 08:58:05;;;;;;;2.13;1.27;;;13.70;99.90;;;;;;4994661;28;20420;-68
2021/10/24 09:00:31;;;;;;;1.10;1.00;;;12.60;99.90;;;;;;4992131;28;20416;-68
2021/10/24 09:03:01;;;;;;;1.37;1.27;;;11.30;99.90;;;;;;4976201;28;20788;-68
2021/10/24 09:05:33;;;;;;;1.50;1.40;;;10.70;99.90;;;;;;4984913;28;20440;-68
2021/10/24 09:08:00;;;;;;;0.80;0.70;;;10.60;99.90;;;;;;5010374;28;20419;-68
2021/10/24 09:10:39;;;;;;;0.70;0.50;;;10.90;99.90;;;;;;4994045;28;21011;-68
2021/10/24 09:13:07;;;;;;;1.87;0.90;;;11.20;99.90;;;;;;4980717;28;20447;-68
2021/10/24 09:15:48;;;;;;;0.70;0.50;;;11.10;99.90;;;;;;4983590;28;20444;-68
2021/10/24 09:18:15;;;;;;;1.73;1.63;;;11.80;99.90;;;;;;4986875;28;20506;-68
2021/10/24 09:20:42;;;;;;;0.93;0.70;;;11.80;99.90;;;;;;4994552;28;20417;-70
2021/10/24 09:23:11;;;;;;;0.97;0.90;;;12.20;99.90;;;;;;4995445;28;20754;-69
2021/10/24 09:25:51;;;;;;;0.80;0.70;;;12.30;99.90;;;;;;4994249;28;20977;-67
2021/10/24 09:28:20;;;;;;;0.83;0.80;;;12.80;99.90;;;;;;4990049;28;20470;-67
2021/10/24 09:30:47;;;;;;;0.70;0.60;;;12.90;99.90;;;;;;4987421;28;20419;-67
2021/10/24 09:33:13;;;;;;;1.20;0.80;;;13.30;99.90;;;;;;4994450;28;20510;-69
2021/10/24 09:35:44;;;;;;;0.80;0.80;;;13.20;99.90;;;;;;5007449;28;20437;-68
2021/10/24 09:38:17;;;;;;;0.70;0.63;;;13.60;99.90;;;;;;4993746;28;20419;-67
2021/10/24 09:40:46;;;;;;;1.07;0.60;;;13.20;99.90;;;;;;4994316;28;20443;-67
2021/10/24 09:43:17;;;;;;;1.10;0.80;;;13.60;99.90;;;;;;4987870;28;20424;-69
2021/10/24 09:45:44;;;;;;;0.90;0.70;;;14.90;99.90;;;;;;4980187;28;20448;-69
2021/10/24 09:48:12;;;;;;;0.97;0.80;;;14.70;99.90;;;;;;4992702;28;20515;-69
2021/10/24 09:50:50;;;;;;;1.13;1.03;;;14.60;99.90;;;;;;4983407;28;20409;-67
2021/10/24 09:53:27;;;;;;;1.43;1.33;;;14.10;99.90;;;;;;4983931;28;20452;-67
2021/10/24 09:55:52;;;;;;;0.80;0.70;;;14.10;99.90;;;;;;4974295;28;20457;-67
2021/10/24 09:58:18;;;;;;;0.83;0.77;;;14.90;99.90;;;;;;4974587;28;20424;-68
2021/10/24 10:00:45;;;;;;;3.83;1.30;;;15.70;99.90;;;;;;4978673;28;20170;-67
2021/10/24 10:03:10;;;;;;;0.80;0.80;;;16.70;99.90;;;;;;4973744;28;20606;-68
2021/10/24 10:05:37;;;;;;;2.03;1.83;;;17.60;99.90;;;;;;4974702;28;20491;-67
2021/10/24 10:08:07;;;;;;;0.83;0.80;;;18.40;99.90;;;;;;4976179;28;20177;-67
2021/10/24 10:10:37;;;;;;;1.30;1.20;;;18.00;99.10;;;;;;4982600;28;20429;-67
2021/10/24 10:13:09;;;;;;;1.43;1.00;;;18.20;99.30;;;;;;4984312;28;21125;-67
2021/10/24 10:15:41;;;;;;;1.07;0.97;;;18.20;96.10;;;;;;4992888;28;20444;-68
2021/10/24 10:18:07;;;;;;;1.43;1.30;;;18.80;94.50;;;;;;4992154;28;20799;-67
2021/10/24 10:20:35;;;;;;;1.33;0.93;;;17.60;95.30;;;;;;4992274;28;20424;-67
2021/10/24 10:23:06;;;;;;;1.27;1.17;;;18.60;94.40;;;;;;4993845;28;20177;-68
2021/10/24 10:25:34;;;;;;;2.87;2.10;;;19.70;94.30;;;;;;4993144;28;20468;-69
2021/10/24 10:27:59;;;;;;;5.90;3.23;;;18.00;92.70;;;;;;4993514;28;20810;-67
2021/10/24 10:30:39;;;;;;;1.53;0.90;;;18.20;93.40;;;;;;4986228;28;20429;-68
2021/10/24 10:33:32;;;;;;;1.27;1.13;;;19.40;94.10;;;;;;4974546;28;20251;-67
2021/10/24 10:35:59;;;;;;;2.57;1.30;;;19.40;92.40;;;;;;4986512;28;20528;-68
2021/10/24 10:38:41;;;;;;;0.93;0.83;;;18.40;90.00;;;;;;4983719;28;20473;-68
2021/10/24 10:41:08;;;;;;;1.43;1.13;;;18.50;91.40;;;;;;4985703;28;20419;-67
2021/10/24 10:43:34;;;;;;;1.27;1.07;;;18.10;88.50;;;;;;4992936;28;20507;-68
2021/10/24 10:46:04;;;;;;;1.67;1.27;;;17.80;90.00;;;;;;4987060;28;20532;-67
2021/10/24 10:48:46;;;;;;;1.00;0.80;;;18.30;90.70;;;;;;4975377;28;20185;-67
2021/10/24 10:51:25;;;;;;;1.20;1.10;;;18.80;88.40;;;;;;4991799;28;20424;-68
2021/10/24 10:53:57;;;;;;;1.30;1.20;;;19.80;85.40;;;;;;4992964;28;20482;-68
2021/10/24 10:56:31;;;;;;;1.00;0.90;;;19.00;84.50;;;;;;4991769;28;20458;-69
2021/10/24 10:59:08;;;;;;;1.53;1.43;;;19.10;85.90;;;;;;5088511;27;20588;-68
2021/10/24 11:01:39;;;;;;;1.07;0.97;;;19.30;82.00;;;;;;5069705;28;20491;-68
2021/10/24 11:04:07;;;;;;;0.93;0.70;;;18.90;79.30;;;;;;5068919;28;20508;-68
2021/10/24 11:06:36;;;;;;;1.10;0.80;;;20.70;81.60;;;;;;5068538;28;20799;-68
2021/10/24 11:09:32;;;;;;;1.97;1.23;;;21.20;78.40;;;;;;5067784;28;20419;-67
2021/10/24 11:11:58;;;;;;;1.20;1.10;;;20.30;74.80;;;;;;5067366;28;20412;-67
2021/10/24 11:14:32;;;;;;;1.13;0.90;;;21.30;76.60;;;;;;5068451;28;20420;-68
2021/10/24 11:16:59;;;;;;;1.07;0.83;;;21.80;74.10;;;;;;5064363;28;20798;-67
2021/10/24 11:19:37;;;;;;;0.80;0.80;;;21.00;71.90;;;;;;5067822;28;20413;-69
2021/10/24 11:22:16;;;;;;;1.00;0.87;;;19.50;69.90;;;;;;5068550;28;20473;-67
2021/10/24 11:24:54;;;;;;;1.53;0.93;;;20.30;73.10;;;;;;5068806;28;20460;-68
2021/10/24 11:27:31;;;;;;;0.93;0.70;;;19.00;73.90;;;;;;5068428;28;20455;-67
2021/10/24 11:30:04;;;;;;;1.13;1.03;;;19.50;77.90;;;;;;5066832;28;20427;-68
2021/10/24 11:32:35;;;;;;;1.10;1.00;;;19.90;74.30;;;;;;5068305;28;20420;-68
2021/10/24 11:35:09;;;;;;;0.80;0.60;;;20.00;74.00;;;;;;5067733;28;20466;-69
2021/10/24 11:37:42;;;;;;;0.90;0.73;;;20.10;70.60;;;;;;5083207;28;20452;-69
2021/10/24 11:40:13;;;;;;;1.47;1.17;;;19.90;75.20;;;;;;5068273;28;20416;-69
2021/10/24 11:42:39;;;;;;;1.00;0.90;;;21.30;73.20;;;;;;5067587;28;20937;-68
2021/10/24 11:45:24;;;;;;;1.10;1.00;;;22.20;68.40;;;;;;5067559;28;20439;-68
2021/10/24 11:48:03;;;;;;;1.33;1.23;;;22.90;66.10;;;;;;5068350;28;20448;-68
2021/10/24 11:50:43;;;;;;;1.63;0.93;;;21.60;66.70;;;;;;5068396;28;20955;-68
2021/10/24 11:53:37;;;;;;;0.90;0.80;;;22.20;68.70;;;;;;5068096;28;20421;-69
2021/10/24 11:56:06;;;;;;;0.73;0.60;;;21.90;66.70;;;;;;5059565;28;20601;-69
2021/10/24 12:01:36;;;;;;;1.27;1.17;;;24.10;64.40;;;;;;5067963;28;20417;-69
2021/10/24 12:04:13;;;;;;;0.90;0.73;;;25.40;63.30;;;;;;5067290;28;20910;-69
2021/10/24 12:06:59;;;;;;;0.97;0.80;;;25.40;59.20;;;;;;5067201;28;20190;-69
2021/10/24 12:09:34;;;;;;;3.10;1.53;;;25.10;56.50;;;;;;5060028;28;20409;-69
2021/10/24 12:12:15;;;;;;;1.20;1.10;;;23.90;57.20;;;;;;5054447;28;20448;-69
2021/10/24 12:14:52;;;;;;;2.03;0.97;;;24.80;57.70;;;;;;5051099;28;20448;-69
2021/10/24 12:17:20;;;;;;;1.00;0.80;;;22.90;55.60;;;;;;5057146;28;20452;-68
2021/10/24 12:19:45;;;;;;;1.00;0.90;;;21.50;57.20;;;;;;5054612;28;20404;-68
2021/10/24 12:22:11;;;;;;;1.00;0.90;;;21.60;58.90;;;;;;5054155;28;20422;-68
2021/10/24 12:24:44;;;;;;;1.00;0.90;;;22.20;61.20;;;;;;5053909;28;20190;-69
2021/10/24 12:27:30;;;;;;;2.43;0.93;;;23.60;61.40;;;;;;5052810;28;20195;-70
2021/10/24 12:29:59;;;;;;;1.33;1.00;;;24.20;59.30;;;;;;5054355;28;20956;-67
2021/10/24 12:32:25;;;;;;;1.67;1.57;;;23.80;57.00;;;;;;5053724;28;20422;-67
2021/10/24 12:35:02;;;;;;;1.10;0.87;;;22.30;58.10;;;;;;5053661;28;20424;-68
2021/10/24 12:37:28;;;;;;;0.90;0.80;;;22.00;60.30;;;;;;5052628;28;20502;-69
2021/10/24 12:40:32;;;;;;;0.80;0.60;;;23.10;60.80;;;;;;5054006;28;20829;-68
2021/10/24 12:43:09;;;;;;;1.13;0.80;;;22.50;59.30;;;;;;5054010;28;20202;-68
2021/10/24 12:45:56;;;;;;;0.90;0.70;;;23.10;60.10;;;;;;5053444;28;20468;-68
2021/10/24 12:48:24;;;;;;;1.53;0.90;;;21.70;58.50;;;;;;5053605;28;20800;-68
2021/10/24 12:50:52;;;;;;;0.80;0.73;;;22.30;61.30;;;;;;5053741;28;20833;-69
2021/10/24 12:53:19;;;;;;;0.90;0.83;;;21.60;60.20;;;;;;5053149;28;20770;-68
2021/10/24 12:56:08;;;;;;;1.20;0.93;;;21.00;59.10;;;;;;5053371;28;20429;-68
2021/10/24 12:58:33;;;;;;;1.13;0.90;;;22.20;62.90;;;;;;5045553;28;20468;-69
2021/10/24 13:00:59;;;;;;;1.10;1.00;;;21.50;59.50;;;;;;5053761;28;20405;-68
2021/10/24 13:03:25;;;;;;;1.57;1.47;;;21.60;62.40;;;;;;5057232;28;20255;-68